Time;durP1;ratioP1;P1;durP2;ratioP2;P2;SDS_P1;SDS_P2;PMS_P1;PMS_P2;Temp;Humidity;BMP_temperature;BMP_pressure;BME280_temperature;BME280_humidity;BME280_pressure;Samples;Min_cycle;Max_cycle;Signal;HPM_P1;HPM_P2
2022/07/22 00:01:39;;;;;;;6.75;1.90;;;17.40;99.90;;;;;;4126115;28;20045;-86
2022/07/22 00:03:40;;;;;;;9.77;3.08;;;17.40;99.90;;;;;;4127301;28;20042;-89
2022/07/22 00:05:41;;;;;;;10.20;2.50;;;17.40;99.90;;;;;;4120389;28;20050;-89
2022/07/22 00:07:42;;;;;;;8.60;2.10;;;17.40;99.90;;;;;;4122987;28;20046;-89
2022/07/22 00:09:43;;;;;;;8.90;2.65;;;17.30;99.90;;;;;;4126708;28;20046;-88
2022/07/22 00:11:43;;;;;;;6.93;1.80;;;17.30;99.90;;;;;;4130462;28;20077;-87
2022/07/22 00:13:45;;;;;;;5.40;1.90;;;17.30;99.90;;;;;;4131156;28;20053;-88
2022/07/22 00:15:46;;;;;;;13.13;2.75;;;17.30;99.90;;;;;;4130057;28;20410;-89
2022/07/22 00:17:49;;;;;;;9.27;2.28;;;17.20;99.90;;;;;;4123329;28;20049;-88
2022/07/22 00:19:50;;;;;;;11.63;2.22;;;17.20;99.90;;;;;;4130009;28;20038;-88
2022/07/22 00:21:51;;;;;;;7.32;2.30;;;17.20;99.90;;;;;;4137501;28;20458;-86
2022/07/22 00:23:52;;;;;;;10.38;1.98;;;17.20;99.90;;;;;;4147336;28;20426;-85
2022/07/22 00:25:53;;;;;;;9.32;2.38;;;17.10;99.90;;;;;;4111435;28;20099;-85
2022/07/22 00:27:54;;;;;;;11.48;2.10;;;17.20;99.90;;;;;;4136470;28;20510;-85
2022/07/22 00:29:55;;;;;;;11.00;2.03;;;17.20;99.90;;;;;;4128940;28;20045;-86
2022/07/22 00:31:56;;;;;;;9.60;1.85;;;17.20;99.90;;;;;;4135942;28;20069;-86
2022/07/22 00:33:56;;;;;;;9.52;1.90;;;17.10;99.90;;;;;;4143868;28;20128;-86
2022/07/22 00:35:57;;;;;;;8.23;1.83;;;17.10;99.90;;;;;;4129944;28;20497;-86
2022/07/22 00:37:58;;;;;;;7.15;1.73;;;17.10;99.90;;;;;;4144704;28;20522;-86
2022/07/22 00:39:58;;;;;;;8.85;1.63;;;17.00;99.90;;;;;;4143441;28;20057;-86
2022/07/22 00:41:59;;;;;;;4.57;1.58;;;17.00;99.90;;;;;;4137452;28;20046;-86
2022/07/22 00:44:03;;;;;;;6.97;1.52;;;16.90;99.90;;;;;;4121776;28;20038;-86
2022/07/22 00:46:04;;;;;;;13.80;2.97;;;16.90;99.90;;;;;;4105162;28;20055;-86
2022/07/22 00:48:05;;;;;;;9.95;1.60;;;17.00;99.90;;;;;;4129415;28;20157;-86
2022/07/22 00:50:06;;;;;;;4.00;1.27;;;16.90;99.90;;;;;;4143899;28;20057;-86
2022/07/22 00:52:07;;;;;;;7.53;1.27;;;16.90;99.90;;;;;;4127936;28;20054;-86
2022/07/22 00:54:08;;;;;;;7.65;2.28;;;17.00;99.90;;;;;;4104339;28;20582;-86
2022/07/22 00:56:10;;;;;;;5.45;1.40;;;17.00;99.90;;;;;;4144141;28;20054;-85
2022/07/22 00:58:10;;;;;;;6.03;1.30;;;16.90;99.90;;;;;;4121269;28;20411;-86
2022/07/22 01:00:15;;;;;;;6.68;1.90;;;16.90;99.90;;;;;;4129266;28;20042;-85
2022/07/22 01:02:16;;;;;;;3.70;1.10;;;16.90;99.90;;;;;;4135627;28;20052;-85
2022/07/22 01:04:18;;;;;;;4.78;1.65;;;16.90;99.90;;;;;;4110692;28;20125;-83
2022/07/22 01:06:19;;;;;;;9.68;1.35;;;16.90;99.90;;;;;;4136184;28;20042;-85
2022/07/22 01:08:20;;;;;;;6.25;1.60;;;17.10;99.90;;;;;;4121820;28;20403;-85
2022/07/22 01:10:21;;;;;;;6.55;1.20;;;16.90;99.90;;;;;;4143193;28;20053;-85
2022/07/22 01:12:22;;;;;;;7.93;1.38;;;16.90;99.90;;;;;;4104491;28;20514;-85
2022/07/22 01:14:23;;;;;;;5.75;1.60;;;16.90;99.90;;;;;;4125628;28;20089;-86
2022/07/22 01:16:24;;;;;;;5.55;1.40;;;16.90;99.90;;;;;;4135340;28;20042;-86
2022/07/22 01:18:25;;;;;;;7.05;1.30;;;16.90;99.90;;;;;;4121637;28;20070;-85
2022/07/22 01:20:26;;;;;;;3.88;1.10;;;16.90;99.90;;;;;;4128942;28;20035;-85
2022/07/22 01:22:27;;;;;;;4.70;1.10;;;16.90;99.90;;;;;;4129166;28;20475;-85
2022/07/22 01:24:28;;;;;;;6.63;1.20;;;16.90;99.90;;;;;;4143996;28;20042;-85
2022/07/22 01:26:28;;;;;;;4.28;1.10;;;16.90;99.90;;;;;;4128411;28;20035;-85
2022/07/22 01:28:29;;;;;;;3.33;2.03;;;16.90;99.90;;;;;;4135869;28;20042;-84
2022/07/22 01:30:30;;;;;;;5.68;1.25;;;16.90;99.90;;;;;;4120907;28;20415;-85
2022/07/22 01:32:30;;;;;;;6.13;1.75;;;16.90;99.90;;;;;;4135553;28;20057;-85
2022/07/22 01:34:31;;;;;;;3.42;1.02;;;16.90;99.90;;;;;;4111827;28;20133;-85
2022/07/22 01:36:33;;;;;;;5.72;0.90;;;16.90;99.90;;;;;;4129051;28;20109;-85
2022/07/22 01:38:34;;;;;;;5.47;1.08;;;16.90;99.90;;;;;;4111435;28;20464;-86
2022/07/22 01:40:35;;;;;;;5.97;1.23;;;16.80;99.90;;;;;;4129124;28;20061;-87
2022/07/22 01:42:36;;;;;;;6.20;1.05;;;16.80;99.90;;;;;;4128671;28;20043;-86
2022/07/22 01:44:36;;;;;;;4.47;1.20;;;16.80;99.90;;;;;;4128835;28;20129;-86
2022/07/22 01:46:37;;;;;;;3.72;1.33;;;16.90;99.90;;;;;;4129682;28;20395;-86
2022/07/22 01:48:40;;;;;;;4.60;1.95;;;16.90;99.90;;;;;;4120076;28;20047;-86
2022/07/22 01:50:41;;;;;;;4.93;1.10;;;16.80;99.90;;;;;;4111748;28;20047;-86
2022/07/22 01:52:42;;;;;;;7.43;1.55;;;16.80;99.90;;;;;;4129031;28;20129;-86
2022/07/22 01:54:43;;;;;;;3.33;0.95;;;16.80;99.90;;;;;;4110888;28;20059;-86
2022/07/22 01:56:44;;;;;;;5.30;0.90;;;16.80;99.90;;;;;;4126021;28;20123;-86
2022/07/22 01:58:45;;;;;;;1.80;0.95;;;16.70;99.90;;;;;;4135131;28;20082;-86
2022/07/22 02:00:46;;;;;;;5.03;1.77;;;16.70;99.90;;;;;;4128405;28;20042;-86
2022/07/22 02:02:47;;;;;;;5.68;1.27;;;16.70;99.90;;;;;;4128262;28;20128;-86
2022/07/22 02:04:48;;;;;;;3.80;1.20;;;16.70;99.90;;;;;;4134193;28;20043;-85
2022/07/22 02:06:48;;;;;;;4.28;0.90;;;16.70;99.90;;;;;;4125180;28;20050;-86
2022/07/22 02:08:49;;;;;;;7.22;0.93;;;16.60;99.90;;;;;;4134592;28;20407;-85
2022/07/22 02:10:51;;;;;;;4.32;0.85;;;16.60;99.90;;;;;;4128109;28;20034;-83
2022/07/22 02:12:51;;;;;;;7.30;1.30;;;16.60;99.90;;;;;;4119788;28;20120;-84
2022/07/22 02:14:52;;;;;;;3.03;0.88;;;16.60;99.90;;;;;;4117359;28;20439;-84
2022/07/22 02:16:53;;;;;;;3.47;1.10;;;16.60;99.90;;;;;;4134606;28;20536;-85
2022/07/22 02:18:54;;;;;;;2.33;1.17;;;16.60;99.90;;;;;;4119561;28;20146;-85
2022/07/22 02:20:54;;;;;;;6.97;1.30;;;16.60;99.90;;;;;;4111211;28;20058;-85
2022/07/22 02:22:55;;;;;;;5.45;1.05;;;16.60;99.90;;;;;;4118669;28;20501;-85
2022/07/22 02:24:56;;;;;;;7.18;1.25;;;16.60;99.90;;;;;;4127794;28;20035;-85
2022/07/22 02:26:57;;;;;;;5.50;1.30;;;16.60;99.90;;;;;;4143927;28;20049;-85
2022/07/22 02:28:57;;;;;;;4.38;1.10;;;16.70;99.90;;;;;;4102683;28;20053;-85
2022/07/22 02:30:58;;;;;;;8.85;1.17;;;16.60;99.90;;;;;;4119663;28;20117;-85
2022/07/22 02:33:00;;;;;;;5.07;1.02;;;16.60;99.90;;;;;;4119941;28;20415;-85
2022/07/22 02:35:01;;;;;;;4.78;1.02;;;16.60;99.90;;;;;;4119027;28;20043;-85
2022/07/22 02:37:01;;;;;;;6.18;1.27;;;16.60;99.90;;;;;;4128023;28;20039;-85
2022/07/22 02:39:03;;;;;;;5.28;0.88;;;16.60;99.90;;;;;;4158636;28;20430;-85
2022/07/22 02:41:04;;;;;;;6.20;1.60;;;16.60;99.90;;;;;;4127399;28;20086;-86
2022/07/22 02:43:07;;;;;;;5.90;1.20;;;16.60;99.90;;;;;;4129669;28;20072;-85
2022/07/22 02:45:08;;;;;;;5.13;1.20;;;16.60;99.90;;;;;;4119744;28;20414;-85
2022/07/22 02:47:09;;;;;;;10.85;1.60;;;16.60;99.90;;;;;;4118979;28;20542;-86
2022/07/22 02:49:10;;;;;;;5.78;1.40;;;16.60;99.90;;;;;;4142376;28;20038;-85
2022/07/22 02:51:10;;;;;;;4.57;1.33;;;16.60;99.90;;;;;;4113041;28;20054;-85
2022/07/22 02:53:11;;;;;;;5.03;1.08;;;16.50;99.90;;;;;;4127390;28;20407;-85
2022/07/22 02:55:12;;;;;;;6.15;1.50;;;16.50;99.90;;;;;;4127839;28;20042;-85
2022/07/22 02:57:13;;;;;;;6.63;2.00;;;16.50;99.90;;;;;;4127752;28;20054;-85
2022/07/22 02:59:13;;;;;;;4.00;1.00;;;16.50;99.90;;;;;;4143676;28;20046;-85
2022/07/22 03:01:14;;;;;;;9.98;1.30;;;16.50;99.90;;;;;;4102466;28;20163;-85
2022/07/22 03:03:15;;;;;;;7.40;1.48;;;16.40;99.90;;;;;;4132454;28;20069;-85
2022/07/22 03:05:15;;;;;;;3.55;1.42;;;16.40;99.90;;;;;;4126457;28;20102;-85
2022/07/22 03:07:16;;;;;;;2.88;1.10;;;16.40;99.90;;;;;;4143991;28;20574;-85
2022/07/22 03:09:17;;;;;;;5.70;1.38;;;16.40;99.90;;;;;;4101133;28;20508;-85
2022/07/22 03:11:18;;;;;;;4.97;1.30;;;16.40;99.90;;;;;;4129239;28;20407;-85
2022/07/22 03:13:18;;;;;;;3.35;1.05;;;16.40;99.90;;;;;;4122466;28;20056;-84
2022/07/22 03:15:19;;;;;;;11.20;1.88;;;16.40;99.90;;;;;;4115247;28;20050;-85
2022/07/22 03:17:20;;;;;;;3.03;1.20;;;16.40;99.90;;;;;;4142053;28;20054;-85
2022/07/22 03:19:21;;;;;;;4.93;1.27;;;16.40;99.90;;;;;;4118125;28;20050;-85
2022/07/22 03:21:21;;;;;;;5.88;1.20;;;16.40;99.90;;;;;;4132432;28;20046;-85
2022/07/22 03:23:22;;;;;;;3.72;0.75;;;16.40;99.90;;;;;;4131097;28;20054;-85
2022/07/22 03:25:23;;;;;;;6.68;1.30;;;16.30;99.90;;;;;;4134453;28;20046;-85
2022/07/22 03:27:24;;;;;;;3.63;1.02;;;16.30;99.90;;;;;;4135548;28;20050;-85
2022/07/22 03:29:24;;;;;;;3.58;1.10;;;16.40;99.90;;;;;;4135313;28;20045;-87
2022/07/22 03:31:25;;;;;;;2.53;1.10;;;16.30;99.90;;;;;;4150368;28;20045;-85
2022/07/22 03:33:26;;;;;;;4.22;1.17;;;16.30;99.90;;;;;;4116354;28;20054;-85
2022/07/22 03:35:27;;;;;;;3.13;0.93;;;16.30;99.90;;;;;;4135137;28;20046;-85
2022/07/22 03:37:28;;;;;;;5.30;1.20;;;16.30;99.90;;;;;;4134629;28;20396;-85
2022/07/22 03:39:28;;;;;;;6.25;1.25;;;16.30;99.90;;;;;;4134881;28;20487;-85
2022/07/22 03:41:29;;;;;;;4.20;1.77;;;16.30;99.90;;;;;;4134726;28;20109;-85
2022/07/22 03:43:30;;;;;;;8.88;1.15;;;16.30;99.90;;;;;;4116974;28;20102;-85
2022/07/22 03:45:31;;;;;;;5.70;0.95;;;16.30;99.90;;;;;;4134845;28;20117;-85
2022/07/22 03:47:33;;;;;;;8.65;0.95;;;16.30;99.90;;;;;;4116444;28;20073;-85
2022/07/22 03:49:33;;;;;;;3.55;1.20;;;16.30;99.90;;;;;;4133873;28;20585;-85
2022/07/22 03:51:34;;;;;;;6.78;1.15;;;16.30;99.90;;;;;;4149402;28;20050;-84
2022/07/22 03:53:35;;;;;;;8.40;2.00;;;16.30;99.90;;;;;;4116617;28;20512;-85
2022/07/22 03:55:36;;;;;;;4.30;1.17;;;16.30;99.90;;;;;;4148580;28;20129;-85
2022/07/22 03:57:36;;;;;;;11.15;1.30;;;16.30;99.90;;;;;;4119453;28;20047;-84
2022/07/22 03:59:37;;;;;;;1.70;1.20;;;16.30;99.90;;;;;;4137996;28;20046;-85
2022/07/22 04:01:38;;;;;;;6.45;1.40;;;16.30;99.90;;;;;;4137196;28;20053;-85
2022/07/22 04:03:40;;;;;;;7.53;1.25;;;16.30;99.90;;;;;;4134055;28;20522;-85
2022/07/22 04:05:41;;;;;;;6.10;1.10;;;16.30;99.90;;;;;;4131615;28;20487;-85
2022/07/22 04:07:41;;;;;;;7.43;1.67;;;16.30;99.90;;;;;;4133235;28;20105;-85
2022/07/22 04:09:43;;;;;;;3.05;0.93;;;16.30;99.90;;;;;;4118881;28;20055;-85
2022/07/22 04:11:44;;;;;;;2.20;0.77;;;16.30;99.90;;;;;;4118549;28;20043;-84
2022/07/22 04:13:44;;;;;;;2.00;0.93;;;16.30;99.90;;;;;;4118538;28;20054;-85
2022/07/22 04:15:45;;;;;;;3.08;0.98;;;16.30;99.90;;;;;;4133043;28;20459;-84
2022/07/22 04:17:46;;;;;;;2.97;1.08;;;16.30;99.90;;;;;;4085664;29;20527;-82
2022/07/22 04:19:47;;;;;;;4.57;1.88;;;16.30;99.90;;;;;;4132790;28;20046;-85
2022/07/22 04:21:48;;;;;;;4.65;1.27;;;16.30;99.90;;;;;;4118882;28;20043;-84
2022/07/22 04:23:50;;;;;;;4.85;1.25;;;16.30;99.90;;;;;;4118800;28;20247;-85
2022/07/22 04:25:51;;;;;;;5.93;1.00;;;16.30;99.90;;;;;;4118522;28;20051;-85
2022/07/22 04:27:52;;;;;;;2.10;0.70;;;16.30;99.90;;;;;;4118245;28;20086;-84
2022/07/22 04:29:54;;;;;;;6.32;1.25;;;16.30;99.90;;;;;;4118286;28;20077;-85
2022/07/22 04:31:54;;;;;;;2.97;1.00;;;16.40;99.90;;;;;;4132987;28;20054;-84
2022/07/22 04:33:57;;;;;;;8.15;1.20;;;16.40;99.90;;;;;;4118697;28;20046;-84
2022/07/22 04:35:59;;;;;;;7.07;2.03;;;16.40;99.90;;;;;;4117240;28;20097;-84
2022/07/22 04:38:00;;;;;;;11.73;1.00;;;16.40;99.90;;;;;;4116496;28;20130;-84
2022/07/22 04:40:01;;;;;;;3.40;1.17;;;16.40;99.90;;;;;;4086239;29;20122;-84
2022/07/22 04:42:01;;;;;;;6.55;1.23;;;16.40;99.90;;;;;;4086441;29;20040;-84
2022/07/22 04:44:02;;;;;;;3.80;1.00;;;16.30;99.90;;;;;;4085101;29;20074;-84
2022/07/22 04:46:03;;;;;;;3.08;1.02;;;16.30;99.90;;;;;;4085437;29;20059;-85
2022/07/22 04:48:04;;;;;;;3.25;1.35;;;16.30;99.90;;;;;;4086318;29;20066;-85
2022/07/22 04:50:05;;;;;;;4.20;1.10;;;16.30;99.90;;;;;;4086104;29;20519;-85
2022/07/22 04:52:06;;;;;;;3.63;0.80;;;16.30;99.90;;;;;;4086254;29;20043;-84
2022/07/22 04:54:08;;;;;;;4.85;1.02;;;16.30;99.90;;;;;;4086304;29;20109;-85
2022/07/22 04:56:09;;;;;;;6.95;1.67;;;16.30;99.90;;;;;;4085961;29;20122;-84
2022/07/22 04:58:09;;;;;;;6.60;1.02;;;16.30;99.90;;;;;;4086247;29;20048;-85
2022/07/22 05:00:11;;;;;;;6.35;0.95;;;16.30;99.90;;;;;;4084737;29;20047;-85
2022/07/22 05:02:11;;;;;;;5.10;1.42;;;16.20;99.90;;;;;;4084358;29;20051;-84
2022/07/22 05:04:12;;;;;;;2.78;1.00;;;16.30;99.90;;;;;;4085889;29;20059;-85
2022/07/22 05:06:13;;;;;;;3.53;1.00;;;16.30;99.90;;;;;;4086160;29;20118;-85
2022/07/22 05:08:14;;;;;;;4.78;0.90;;;16.30;99.90;;;;;;4084766;29;20048;-85
2022/07/22 05:10:14;;;;;;;6.90;1.25;;;16.30;99.90;;;;;;4086026;29;20437;-85
2022/07/22 05:12:16;;;;;;;5.90;1.10;;;16.40;99.90;;;;;;4085528;29;20083;-84
2022/07/22 05:14:17;;;;;;;4.57;0.95;;;16.40;99.90;;;;;;4085198;29;20090;-84
2022/07/22 05:16:17;;;;;;;3.28;1.30;;;16.40;99.90;;;;;;4086045;29;20416;-84
2022/07/22 05:18:18;;;;;;;4.65;1.08;;;16.40;99.90;;;;;;4086019;29;20044;-83
2022/07/22 05:20:19;;;;;;;3.55;1.08;;;16.40;99.90;;;;;;4084645;29;20067;-85
2022/07/22 05:22:20;;;;;;;4.03;1.13;;;16.40;99.90;;;;;;4086079;29;20564;-84
2022/07/22 05:24:22;;;;;;;5.80;1.63;;;16.40;99.90;;;;;;4084081;29;20048;-84
2022/07/22 05:26:24;;;;;;;3.95;1.00;;;16.40;99.90;;;;;;4084228;29;20055;-83
2022/07/22 05:28:24;;;;;;;3.83;1.10;;;16.50;99.90;;;;;;4085638;29;20083;-83
2022/07/22 05:30:25;;;;;;;4.57;0.95;;;16.50;99.90;;;;;;4083894;29;20413;-82
2022/07/22 05:32:26;;;;;;;3.80;1.10;;;16.50;99.90;;;;;;4088054;29;20047;-88
2022/07/22 05:34:27;;;;;;;4.57;1.00;;;16.50;99.90;;;;;;4087647;29;20043;-86
2022/07/22 05:36:29;;;;;;;2.63;0.70;;;16.50;99.90;;;;;;4084624;29;20506;-85
2022/07/22 05:38:32;;;;;;;7.97;1.20;;;16.50;99.90;;;;;;4087799;29;20058;-85
2022/07/22 05:40:33;;;;;;;4.78;0.80;;;16.50;99.90;;;;;;4087845;29;20066;-86
2022/07/22 05:42:34;;;;;;;4.47;1.17;;;16.60;99.90;;;;;;4084397;29;20130;-87
2022/07/22 05:44:36;;;;;;;6.38;1.10;;;16.60;99.90;;;;;;4088558;29;20095;-88
2022/07/22 05:46:37;;;;;;;3.95;1.00;;;16.60;99.90;;;;;;4087805;29;20070;-88
2022/07/22 05:48:38;;;;;;;2.70;0.70;;;16.70;99.90;;;;;;4085887;29;20044;-87
2022/07/22 05:50:39;;;;;;;6.28;1.85;;;16.70;99.90;;;;;;4084725;29;20460;-86
2022/07/22 05:52:39;;;;;;;3.80;0.95;;;16.70;99.90;;;;;;4094861;29;20047;-86
2022/07/22 05:54:40;;;;;;;7.03;1.00;;;16.70;99.90;;;;;;4101239;28;20075;-88
2022/07/22 05:56:41;;;;;;;2.67;1.13;;;16.70;99.90;;;;;;4101694;28;20051;-87
2022/07/22 05:58:42;;;;;;;8.80;1.88;;;16.80;99.90;;;;;;4102202;28;20043;-87
2022/07/22 06:00:43;;;;;;;5.18;1.23;;;16.70;99.90;;;;;;4101007;29;20047;-87
2022/07/22 06:02:44;;;;;;;5.85;1.50;;;16.70;99.90;;;;;;4099407;29;20086;-86
2022/07/22 06:04:45;;;;;;;6.35;1.00;;;16.70;99.90;;;;;;4099605;29;20483;-87
2022/07/22 06:06:46;;;;;;;5.00;0.90;;;16.70;99.90;;;;;;4099922;28;20074;-86
2022/07/22 06:08:46;;;;;;;4.82;1.10;;;16.70;99.90;;;;;;4100456;29;20043;-86
2022/07/22 06:10:47;;;;;;;3.88;1.30;;;16.70;99.90;;;;;;4131342;28;20046;-86
2022/07/22 06:12:49;;;;;;;3.97;1.00;;;16.70;99.90;;;;;;4100667;28;20058;-86
2022/07/22 06:14:50;;;;;;;6.57;1.10;;;16.70;99.90;;;;;;4130964;28;20057;-86
2022/07/22 06:16:50;;;;;;;2.20;1.08;;;16.70;99.90;;;;;;4099075;28;20047;-86
2022/07/22 06:18:51;;;;;;;3.25;0.90;;;16.70;99.90;;;;;;4100718;29;20058;-85
2022/07/22 06:20:53;;;;;;;6.93;1.33;;;16.80;99.90;;;;;;4098986;29;20109;-85
2022/07/22 06:22:54;;;;;;;2.33;1.10;;;16.80;99.90;;;;;;4099376;29;20126;-88
2022/07/22 06:24:55;;;;;;;3.95;1.52;;;16.80;99.90;;;;;;4099507;29;20480;-87
2022/07/22 06:26:55;;;;;;;5.32;0.90;;;16.80;99.90;;;;;;4099716;29;20054;-87
2022/07/22 06:28:56;;;;;;;5.38;1.65;;;16.80;99.90;;;;;;4099573;29;20431;-86
2022/07/22 06:30:58;;;;;;;1.77;0.68;;;16.90;99.90;;;;;;4100872;29;20036;-87
2022/07/22 06:32:59;;;;;;;5.95;1.52;;;16.90;99.90;;;;;;4101734;29;20056;-87
2022/07/22 06:34:59;;;;;;;7.22;1.25;;;16.90;99.90;;;;;;4100187;29;20039;-85
2022/07/22 06:37:00;;;;;;;9.65;1.27;;;16.90;99.90;;;;;;4099718;29;20051;-85
2022/07/22 06:39:01;;;;;;;2.83;0.82;;;17.00;99.90;;;;;;4099320;28;20109;-86
2022/07/22 06:41:02;;;;;;;3.28;1.10;;;17.10;99.90;;;;;;4101208;28;20057;-86
2022/07/22 06:43:04;;;;;;;5.70;1.13;;;17.00;99.90;;;;;;4088676;29;20090;-86
2022/07/22 06:45:10;;;;;;;5.78;0.98;;;17.20;99.90;;;;;;4132312;28;20050;-87
2022/07/22 06:47:11;;;;;;;3.40;1.17;;;17.20;99.90;;;;;;4119526;28;20514;-86
2022/07/22 06:49:12;;;;;;;5.22;1.55;;;17.20;99.90;;;;;;4093841;28;20039;-86
2022/07/22 06:51:15;;;;;;;3.83;1.58;;;17.30;99.90;;;;;;4087668;29;20079;-87
2022/07/22 06:53:15;;;;;;;3.53;0.73;;;17.30;99.90;;;;;;4081944;29;20047;-87
2022/07/22 06:55:16;;;;;;;4.38;0.98;;;17.40;99.90;;;;;;4115150;28;20058;-87
2022/07/22 06:57:17;;;;;;;10.05;1.83;;;17.50;99.90;;;;;;4084961;29;20043;-87
2022/07/22 06:59:18;;;;;;;1.33;0.85;;;17.50;99.90;;;;;;4084116;29;20386;-86
2022/07/22 07:01:18;;;;;;;2.78;0.95;;;17.50;99.90;;;;;;4083782;29;20468;-86
2022/07/22 07:03:20;;;;;;;3.72;0.93;;;17.60;99.90;;;;;;4084341;29;20051;-87
2022/07/22 07:05:20;;;;;;;4.15;0.80;;;17.60;99.90;;;;;;4083155;29;20055;-86
2022/07/22 07:07:22;;;;;;;3.22;1.10;;;17.70;99.90;;;;;;4084358;29;20046;-86
2022/07/22 07:09:23;;;;;;;5.82;1.40;;;17.70;99.90;;;;;;4084493;29;20052;-87
2022/07/22 07:11:23;;;;;;;2.95;0.75;;;17.80;99.90;;;;;;4067705;29;20052;-86
2022/07/22 07:13:24;;;;;;;5.40;1.05;;;17.80;99.90;;;;;;4115296;28;20046;-86
2022/07/22 07:15:26;;;;;;;3.15;0.70;;;17.90;99.90;;;;;;4084731;29;20078;-87
2022/07/22 07:17:27;;;;;;;1.88;0.65;;;17.90;99.90;;;;;;4084164;29;20469;-86
2022/07/22 07:19:27;;;;;;;1.67;0.82;;;17.80;99.90;;;;;;4084662;29;20091;-87
2022/07/22 07:21:28;;;;;;;4.55;1.23;;;17.90;99.90;;;;;;4086797;29;20386;-87
2022/07/22 07:23:29;;;;;;;7.10;1.00;;;17.90;99.90;;;;;;4086437;29;20144;-87
2022/07/22 07:25:31;;;;;;;2.25;0.50;;;17.90;99.90;;;;;;4084398;29;20075;-86
2022/07/22 07:27:32;;;;;;;2.60;0.85;;;17.90;99.90;;;;;;4084472;29;20059;-86
2022/07/22 07:29:32;;;;;;;1.10;0.52;;;18.00;99.90;;;;;;4083418;29;20051;-87
2022/07/22 07:31:33;;;;;;;1.77;0.50;;;18.00;99.90;;;;;;4099123;29;20488;-87
2022/07/22 07:33:34;;;;;;;4.43;0.82;;;18.10;99.90;;;;;;4099526;28;20130;-87
2022/07/22 07:35:35;;;;;;;7.53;0.80;;;18.10;99.90;;;;;;4115087;28;20057;-87
2022/07/22 07:37:36;;;;;;;3.72;0.50;;;18.20;99.90;;;;;;4084302;28;20067;-87
2022/07/22 07:39:37;;;;;;;3.15;0.50;;;18.20;99.90;;;;;;4110354;28;20059;-87
2022/07/22 07:41:37;;;;;;;1.55;0.50;;;18.20;99.90;;;;;;4147417;28;20049;-87
2022/07/22 07:43:40;;;;;;;2.15;0.47;;;18.20;99.70;;;;;;4130978;28;20046;-87
2022/07/22 07:45:40;;;;;;;4.75;0.73;;;18.30;99.70;;;;;;4130677;28;20418;-87
2022/07/22 07:47:41;;;;;;;5.20;0.98;;;18.30;99.80;;;;;;4115312;28;20050;-87
2022/07/22 07:49:45;;;;;;;3.45;0.60;;;18.30;99.60;;;;;;4082977;29;20056;-87
2022/07/22 07:51:47;;;;;;;2.28;0.95;;;18.30;99.40;;;;;;4115895;28;20043;-87
2022/07/22 07:53:48;;;;;;;1.10;0.50;;;18.40;99.40;;;;;;4116058;28;20050;-87
2022/07/22 07:55:49;;;;;;;3.20;0.80;;;18.40;99.20;;;;;;4130242;28;20430;-87
2022/07/22 07:57:50;;;;;;;3.58;1.05;;;18.40;99.20;;;;;;4099126;28;20063;-87
2022/07/22 07:59:51;;;;;;;3.85;0.70;;;18.50;99.30;;;;;;4116068;28;20047;-86
2022/07/22 08:01:52;;;;;;;2.42;0.60;;;18.50;99.30;;;;;;4115928;28;20046;-87
2022/07/22 08:03:52;;;;;;;1.02;0.40;;;18.60;99.30;;;;;;4116070;28;20054;-87
2022/07/22 08:05:53;;;;;;;2.38;1.10;;;18.70;99.10;;;;;;4115687;28;20492;-87
2022/07/22 08:07:54;;;;;;;3.42;0.75;;;18.70;98.60;;;;;;4147113;28;20207;-86
2022/07/22 08:09:55;;;;;;;2.53;0.70;;;18.70;98.80;;;;;;4115614;28;20437;-87
2022/07/22 08:11:55;;;;;;;3.13;0.40;;;18.70;98.80;;;;;;4119433;28;20045;-86
2022/07/22 08:13:57;;;;;;;6.18;1.15;;;18.70;98.70;;;;;;4117049;28;20122;-87
2022/07/22 08:15:58;;;;;;;1.30;0.50;;;18.70;98.60;;;;;;4133646;28;20046;-86
2022/07/22 08:17:59;;;;;;;6.20;0.50;;;18.70;98.30;;;;;;4118811;28;20129;-88
2022/07/22 08:20:00;;;;;;;3.58;0.68;;;18.70;98.20;;;;;;4134241;28;20043;-86
2022/07/22 08:22:00;;;;;;;4.38;0.95;;;18.60;98.10;;;;;;4101620;28;20484;-87
2022/07/22 08:24:01;;;;;;;3.13;0.50;;;18.60;98.20;;;;;;4133434;28;20058;-86
2022/07/22 08:26:02;;;;;;;5.07;0.60;;;18.50;98.00;;;;;;4101215;28;20070;-87
2022/07/22 08:28:03;;;;;;;5.32;0.95;;;18.50;98.00;;;;;;4133687;28;20640;-87
2022/07/22 08:30:05;;;;;;;5.20;1.23;;;18.40;97.90;;;;;;4101454;28;20579;-87
2022/07/22 08:32:06;;;;;;;2.00;0.52;;;18.40;97.90;;;;;;4133567;28;20054;-86
2022/07/22 08:34:07;;;;;;;7.53;0.80;;;18.30;97.80;;;;;;4101133;28;20093;-87
2022/07/22 08:36:08;;;;;;;4.82;0.73;;;18.30;97.80;;;;;;4118525;28;20455;-86
2022/07/22 08:38:09;;;;;;;7.75;0.77;;;18.30;98.10;;;;;;4117900;28;20103;-86
2022/07/22 08:40:10;;;;;;;5.50;0.80;;;18.20;98.30;;;;;;4118352;28;20047;-87
2022/07/22 08:42:13;;;;;;;2.35;0.60;;;18.30;98.20;;;;;;4133285;28;20050;-86
2022/07/22 08:44:14;;;;;;;6.68;0.65;;;18.30;98.40;;;;;;4132515;28;20046;-87
2022/07/22 08:46:15;;;;;;;3.72;1.23;;;18.30;98.40;;;;;;4101246;29;20169;-87
2022/07/22 08:48:17;;;;;;;9.25;0.70;;;18.20;98.40;;;;;;4133097;28;20054;-87
2022/07/22 08:50:17;;;;;;;4.93;1.00;;;18.20;98.30;;;;;;4148857;28;20050;-87
2022/07/22 08:52:18;;;;;;;3.65;0.70;;;18.20;98.40;;;;;;4117100;28;20484;-87
2022/07/22 08:54:19;;;;;;;1.80;0.80;;;18.20;98.40;;;;;;4134328;28;20100;-86
2022/07/22 08:56:20;;;;;;;2.47;0.70;;;18.20;98.30;;;;;;4133996;28;20043;-87
2022/07/22 08:58:22;;;;;;;7.63;1.50;;;18.20;98.30;;;;;;4117145;28;20134;-87
2022/07/22 09:00:23;;;;;;;2.22;0.90;;;18.20;98.30;;;;;;4134056;28;20120;-87
2022/07/22 09:02:24;;;;;;;3.80;0.63;;;18.20;98.10;;;;;;4134433;28;20046;-86
2022/07/22 09:04:25;;;;;;;4.25;0.70;;;18.20;98.00;;;;;;4148851;28;20492;-86
2022/07/22 09:06:33;;;;;;;2.97;0.90;;;18.20;97.80;;;;;;4149299;28;20100;-86
2022/07/22 09:08:50;;;;;;;2.60;0.68;;;18.20;97.70;;;;;;4149121;28;20104;-87
2022/07/22 09:10:52;;;;;;;1.75;0.70;;;18.20;97.80;;;;;;4149334;28;20076;-87
2022/07/22 09:12:58;;;;;;;2.75;0.68;;;18.20;97.80;;;;;;4133846;28;20077;-87
2022/07/22 09:15:01;;;;;;;4.00;0.93;;;18.30;97.70;;;;;;4117089;28;20043;-86
2022/07/22 09:17:02;;;;;;;3.72;0.98;;;18.30;97.60;;;;;;4148575;28;20065;-87
2022/07/22 09:19:02;;;;;;;1.95;0.90;;;18.40;97.70;;;;;;4149322;28;20125;-86
2022/07/22 09:21:03;;;;;;;3.65;0.70;;;18.50;97.50;;;;;;4134742;28;20506;-87
2022/07/22 09:23:20;;;;;;;3.33;0.98;;;18.50;97.50;;;;;;4148558;28;20046;-87
2022/07/22 09:25:33;;;;;;;4.22;0.60;;;18.60;97.80;;;;;;4134433;28;20049;-87
2022/07/22 09:27:33;;;;;;;2.03;0.65;;;18.60;97.40;;;;;;4117135;28;20142;-87
2022/07/22 09:29:34;;;;;;;1.92;0.70;;;18.60;97.40;;;;;;4134415;28;20043;-87
2022/07/22 09:31:37;;;;;;;5.40;0.98;;;18.50;97.30;;;;;;4117359;28;20444;-88
2022/07/22 09:33:37;;;;;;;3.78;1.05;;;18.50;97.60;;;;;;4148826;28;20053;-88
2022/07/22 09:35:40;;;;;;;2.17;0.88;;;18.50;97.60;;;;;;4134035;28;20038;-88
2022/07/22 09:38:09;;;;;;;4.32;1.00;;;18.50;97.60;;;;;;4133369;28;20042;-87
2022/07/22 09:40:20;;;;;;;2.05;0.70;;;18.50;97.80;;;;;;4131505;28;20050;-88
2022/07/22 09:42:21;;;;;;;2.78;0.50;;;18.50;97.80;;;;;;4114884;28;20046;-85
2022/07/22 09:44:23;;;;;;;4.40;0.70;;;18.50;97.70;;;;;;4132536;28;20557;-86
2022/07/22 09:46:36;;;;;;;2.10;0.60;;;18.50;97.60;;;;;;4148374;28;20053;-85
2022/07/22 09:48:39;;;;;;;2.67;0.68;;;18.60;97.60;;;;;;4099357;28;20055;-86
2022/07/22 09:50:40;;;;;;;4.15;0.60;;;18.60;97.40;;;;;;4147777;28;20092;-87
2022/07/22 09:52:42;;;;;;;3.03;0.75;;;18.60;97.50;;;;;;4146566;28;20080;-85
2022/07/22 09:54:44;;;;;;;1.25;0.50;;;18.70;97.40;;;;;;4111568;28;20051;-86
2022/07/22 09:56:45;;;;;;;4.82;0.75;;;18.70;97.00;;;;;;4147181;28;20046;-86
2022/07/22 09:58:46;;;;;;;6.28;1.58;;;18.80;96.80;;;;;;4131943;28;20089;-86
2022/07/22 10:00:47;;;;;;;2.45;0.60;;;18.80;96.70;;;;;;4137604;28;20054;-86
2022/07/22 10:02:49;;;;;;;2.67;0.50;;;18.90;96.70;;;;;;4130105;28;20118;-85
2022/07/22 10:04:50;;;;;;;1.55;0.50;;;18.90;96.50;;;;;;4148594;28;20042;-85
2022/07/22 10:06:54;;;;;;;1.23;0.50;;;19.00;96.40;;;;;;4133857;28;20056;-85
2022/07/22 10:08:56;;;;;;;3.28;0.50;;;19.10;96.40;;;;;;4134713;28;20038;-86
2022/07/22 10:11:02;;;;;;;4.65;0.55;;;19.10;96.10;;;;;;4150901;28;20077;-85
2022/07/22 10:13:04;;;;;;;3.45;1.50;;;19.30;96.30;;;;;;4133351;28;20054;-85
2022/07/22 10:15:07;;;;;;;4.50;0.50;;;19.30;96.50;;;;;;4132620;28;20082;-85
2022/07/22 10:17:08;;;;;;;1.45;0.50;;;19.40;96.70;;;;;;4117243;28;20054;-85
2022/07/22 10:19:10;;;;;;;4.53;1.08;;;19.40;96.80;;;;;;4119214;28;20049;-85
2022/07/22 10:21:11;;;;;;;1.85;0.40;;;19.40;96.90;;;;;;4121282;28;20491;-85
2022/07/22 10:23:13;;;;;;;1.70;0.60;;;19.50;97.00;;;;;;4117262;28;20086;-85
2022/07/22 10:25:18;;;;;;;3.58;0.70;;;19.50;97.10;;;;;;4119466;28;20474;-85
2022/07/22 10:27:45;;;;;;;6.70;1.85;;;19.40;97.30;;;;;;4136390;28;20050;-85
2022/07/22 10:29:48;;;;;;;5.25;0.60;;;19.60;97.30;;;;;;4134882;28;20503;-86
2022/07/22 10:31:49;;;;;;;2.15;0.70;;;19.70;97.40;;;;;;4134597;28;20042;-86